Time;durP1;ratioP1;P1;durP2;ratioP2;P2;SDS_P1;SDS_P2;PMS_P1;PMS_P2;Temp;Humidity;BMP_temperature;BMP_pressure;BME280_temperature;BME280_humidity;BME280_pressure;Samples;Min_cycle;Max_cycle;Signal;HPM_P1;HPM_P2
2024/02/16 00:03:16;;;;;;;0.70;0.70;;;11.30;99.90;;;;;;10426970;28;20198;-81
2024/02/16 00:08:21;;;;;;;0.50;0.50;;;11.30;99.90;;;;;;10427038;28;20208;-82
2024/02/16 00:13:23;;;;;;;0.50;0.50;;;11.40;99.90;;;;;;10426334;28;20202;-83
2024/02/16 00:18:26;;;;;;;0.50;0.50;;;11.40;99.90;;;;;;10425648;28;20244;-83
2024/02/16 00:23:29;;;;;;;0.50;0.50;;;11.50;99.90;;;;;;10424973;28;20289;-82
2024/02/16 00:28:32;;;;;;;0.50;0.50;;;11.50;99.90;;;;;;10426302;28;20586;-82
2024/02/16 00:33:34;;;;;;;0.50;0.50;;;11.50;99.90;;;;;;10433631;28;20225;-82
2024/02/16 00:38:38;;;;;;;0.60;0.60;;;11.50;99.90;;;;;;10434544;28;20226;-82
2024/02/16 00:43:40;;;;;;;0.50;0.50;;;11.50;99.90;;;;;;10435292;28;20217;-82
2024/02/16 00:48:43;;;;;;;0.50;0.50;;;11.50;99.90;;;;;;10434885;28;20206;-82
2024/02/16 00:53:47;;;;;;;0.50;0.50;;;11.50;99.90;;;;;;10414555;28;20205;-83
2024/02/16 00:58:49;;;;;;;0.50;0.50;;;11.50;99.90;;;;;;10430198;28;20226;-80
2024/02/16 01:03:52;;;;;;;0.50;0.50;;;11.50;99.90;;;;;;10435929;28;20243;-84
2024/02/16 01:08:56;;;;;;;0.50;0.50;;;11.60;99.90;;;;;;10432402;28;20198;-82
2024/02/16 01:13:59;;;;;;;0.50;0.50;;;11.60;99.90;;;;;;10433928;28;20194;-82
2024/02/16 01:19:01;;;;;;;0.50;0.50;;;11.60;99.90;;;;;;10434418;28;20221;-82
2024/02/16 01:24:05;;;;;;;0.40;0.40;;;11.60;99.90;;;;;;10438938;28;20197;-81
2024/02/16 01:29:08;;;;;;;0.50;0.50;;;11.60;99.90;;;;;;10437527;28;20222;-82
2024/02/16 01:34:10;;;;;;;0.53;0.53;;;11.60;99.90;;;;;;10391295;28;20199;-83
2024/02/16 01:39:14;;;;;;;0.53;0.53;;;11.60;99.90;;;;;;10432371;28;20229;-83
2024/02/16 01:44:16;;;;;;;0.60;0.60;;;11.60;99.90;;;;;;10414977;28;20217;-82
2024/02/16 01:49:19;;;;;;;0.50;0.50;;;11.60;99.90;;;;;;10434300;28;20253;-83
2024/02/16 01:54:23;;;;;;;0.53;0.53;;;11.60;99.90;;;;;;10433993;28;20186;-82
2024/02/16 01:59:26;;;;;;;0.50;0.50;;;11.60;99.90;;;;;;10430382;28;20241;-83
2024/02/16 02:04:28;;;;;;;0.50;0.50;;;11.70;99.90;;;;;;10412272;28;20682;-81
2024/02/16 02:09:33;;;;;;;0.60;0.60;;;11.70;99.90;;;;;;10433792;28;20205;-82
2024/02/16 02:14:36;;;;;;;0.60;0.60;;;11.70;99.90;;;;;;10433455;28;20198;-82
2024/02/16 02:19:38;;;;;;;0.53;0.53;;;11.70;99.90;;;;;;10433447;28;20218;-83
2024/02/16 02:24:43;;;;;;;0.57;0.57;;;11.70;99.90;;;;;;10431111;28;20208;-82
2024/02/16 02:29:46;;;;;;;0.50;0.50;;;11.60;99.90;;;;;;10428633;28;20621;-82
2024/02/16 02:34:48;;;;;;;0.50;0.50;;;11.60;99.90;;;;;;10411193;28;20247;-82
2024/02/16 02:39:52;;;;;;;0.60;0.60;;;11.70;99.90;;;;;;10424527;28;20229;-82
2024/02/16 02:44:54;;;;;;;0.63;0.63;;;11.70;99.90;;;;;;10430220;28;20500;-83
2024/02/16 02:49:57;;;;;;;0.60;0.60;;;11.70;99.90;;;;;;10423670;28;20218;-81
2024/02/16 02:55:00;;;;;;;0.60;0.60;;;11.80;99.90;;;;;;10425538;28;20256;-82
2024/02/16 03:00:07;;;;;;;0.60;0.60;;;11.80;99.90;;;;;;10429942;28;20268;-84
2024/02/16 03:05:09;;;;;;;0.60;0.60;;;11.80;99.90;;;;;;10431507;28;20186;-82
2024/02/16 03:10:15;;;;;;;0.60;0.60;;;11.80;99.90;;;;;;10429973;28;20209;-83
2024/02/16 03:15:18;;;;;;;0.60;0.60;;;11.80;99.90;;;;;;10431864;28;20189;-84
2024/02/16 03:20:21;;;;;;;0.60;0.60;;;11.80;99.90;;;;;;10433518;28;20237;-83
2024/02/16 03:25:25;;;;;;;0.60;0.60;;;11.80;99.90;;;;;;10432271;28;20186;-80
2024/02/16 03:30:28;;;;;;;0.60;0.60;;;11.80;99.90;;;;;;10435270;28;20229;-82
2024/02/16 03:35:30;;;;;;;0.70;0.70;;;11.70;99.90;;;;;;10423338;28;20194;-79
2024/02/16 03:40:34;;;;;;;0.70;0.70;;;11.70;99.90;;;;;;10424073;28;20214;-80
2024/02/16 03:45:36;;;;;;;0.70;0.70;;;11.70;99.90;;;;;;10424101;28;20194;-82
2024/02/16 03:50:38;;;;;;;0.60;0.60;;;11.80;99.90;;;;;;10419175;28;20222;-81
2024/02/16 03:55:42;;;;;;;0.60;0.60;;;11.70;99.90;;;;;;10405951;28;20216;-80
2024/02/16 04:00:44;;;;;;;0.50;0.50;;;11.70;99.90;;;;;;10427293;28;20209;-83
2024/02/16 04:05:47;;;;;;;1.10;1.10;;;11.70;99.90;;;;;;10426969;28;20662;-80
2024/02/16 04:10:50;;;;;;;1.10;1.10;;;11.70;99.90;;;;;;10426607;28;20213;-81
2024/02/16 04:15:53;;;;;;;1.10;1.10;;;11.70;99.90;;;;;;10407000;28;20220;-82
2024/02/16 04:20:55;;;;;;;0.80;0.80;;;11.60;99.90;;;;;;10398895;28;20226;-82
2024/02/16 04:25:59;;;;;;;1.00;1.00;;;11.60;99.90;;;;;;10411725;28;20207;-79
2024/02/16 04:31:01;;;;;;;1.00;1.00;;;11.60;99.90;;;;;;10420511;28;20672;-82
2024/02/16 04:36:08;;;;;;;1.00;1.00;;;11.60;99.90;;;;;;10407212;28;20273;-84
2024/02/16 04:41:12;;;;;;;1.10;1.10;;;11.60;99.90;;;;;;10391543;28;20263;-83
2024/02/16 04:46:15;;;;;;;1.10;1.10;;;11.60;99.90;;;;;;10397788;28;20205;-84
2024/02/16 04:51:18;;;;;;;0.80;0.80;;;11.60;99.90;;;;;;10404122;28;20218;-83
2024/02/16 04:56:22;;;;;;;1.00;1.00;;;11.60;99.90;;;;;;10397797;28;20649;-85
2024/02/16 05:01:25;;;;;;;1.03;1.03;;;11.60;99.90;;;;;;10426409;28;20742;-82
2024/02/16 05:06:28;;;;;;;0.67;0.67;;;11.70;99.90;;;;;;10414954;28;20209;-82
2024/02/16 05:11:33;;;;;;;0.90;0.90;;;11.70;99.90;;;;;;10427056;28;20625;-83
2024/02/16 05:16:36;;;;;;;0.60;0.60;;;11.70;99.90;;;;;;10428782;28;20218;-80
2024/02/16 05:21:38;;;;;;;0.90;0.90;;;11.70;99.90;;;;;;10472914;22;20577;-78
2024/02/16 05:26:42;;;;;;;1.00;1.00;;;11.70;99.90;;;;;;10455774;28;20251;-78
2024/02/16 05:31:45;;;;;;;0.90;0.90;;;11.70;99.90;;;;;;10437984;28;20219;-75
2024/02/16 05:36:47;;;;;;;1.00;1.00;;;11.70;99.90;;;;;;10455360;28;20617;-76
2024/02/16 05:41:51;;;;;;;0.57;0.57;;;11.70;99.90;;;;;;10444466;28;20772;-76
2024/02/16 05:46:54;;;;;;;0.80;0.80;;;11.70;99.90;;;;;;10439215;28;20595;-76
2024/02/16 05:57:18;;;;;;;0.70;0.70;;;11.70;99.90;;;;;;10436968;28;20240;-75
2024/02/16 06:02:20;;;;;;;0.80;0.80;;;11.60;99.90;;;;;;10445385;28;20498;-76
2024/02/16 06:07:23;;;;;;;0.77;0.77;;;11.60;99.90;;;;;;10414138;28;20201;-76
2024/02/16 06:12:27;;;;;;;0.80;0.80;;;11.60;99.90;;;;;;10413963;28;20217;-76
2024/02/16 06:17:29;;;;;;;0.70;0.70;;;11.50;99.90;;;;;;10415710;28;20569;-77
2024/02/16 06:22:32;;;;;;;0.60;0.60;;;11.50;99.90;;;;;;10419376;28;20229;-76
2024/02/16 06:27:36;;;;;;;0.80;0.80;;;11.50;99.90;;;;;;10447860;28;20537;-76
2024/02/16 06:32:39;;;;;;;0.60;0.60;;;11.50;99.90;;;;;;10447549;28;20766;-75
2024/02/16 06:37:41;;;;;;;0.90;0.90;;;11.50;99.90;;;;;;10420667;28;20574;-77
2024/02/16 06:42:46;;;;;;;0.83;0.83;;;11.50;99.90;;;;;;10440817;28;20221;-77
2024/02/16 06:47:48;;;;;;;0.67;0.67;;;11.50;99.90;;;;;;10418343;28;20271;-76
2024/02/16 06:52:51;;;;;;;0.70;0.70;;;11.50;99.90;;;;;;10452878;28;20785;-76
2024/02/16 06:57:54;;;;;;;0.47;0.47;;;11.50;99.90;;;;;;10452467;28;20224;-75
2024/02/16 07:02:57;;;;;;;0.60;0.60;;;11.50;99.90;;;;;;10435152;28;20209;-76
2024/02/16 07:07:59;;;;;;;0.70;0.70;;;11.40;99.90;;;;;;10418552;28;20200;-76
2024/02/16 07:13:04;;;;;;;0.50;0.50;;;11.40;99.90;;;;;;10434087;28;20198;-74
2024/02/16 07:18:07;;;;;;;0.60;0.60;;;11.40;99.90;;;;;;10451548;28;20626;-76
2024/02/16 07:23:10;;;;;;;0.70;0.70;;;11.40;99.90;;;;;;10432909;28;20209;-76
2024/02/16 07:28:14;;;;;;;0.50;0.50;;;11.40;99.90;;;;;;10433431;28;20204;-77
2024/02/16 07:33:17;;;;;;;0.80;0.80;;;11.40;99.90;;;;;;10451202;28;20201;-77
2024/02/16 07:38:21;;;;;;;0.80;0.80;;;11.50;99.90;;;;;;10451299;28;20217;-75
2024/02/16 07:43:25;;;;;;;0.70;0.70;;;11.40;99.90;;;;;;10432234;28;20201;-76
2024/02/16 07:48:28;;;;;;;0.70;0.70;;;11.40;99.90;;;;;;10450868;28;20216;-76
2024/02/16 07:53:33;;;;;;;0.63;0.63;;;11.40;99.90;;;;;;10450514;28;20193;-76
2024/02/16 07:58:37;;;;;;;0.70;0.70;;;11.40;99.90;;;;;;10450289;28;20244;-76
2024/02/16 08:03:42;;;;;;;0.60;0.60;;;11.30;99.90;;;;;;10432442;28;20201;-77
2024/02/16 08:08:44;;;;;;;0.60;0.60;;;11.30;99.90;;;;;;10449919;28;20282;-76
2024/02/16 08:13:48;;;;;;;0.60;0.60;;;11.30;99.90;;;;;;10431861;28;20205;-77
2024/02/16 08:18:50;;;;;;;0.60;0.60;;;11.30;99.90;;;;;;10449545;28;20228;-76
2024/02/16 08:23:53;;;;;;;0.60;0.60;;;11.30;99.90;;;;;;10431588;28;20197;-76
2024/02/16 08:28:57;;;;;;;0.60;0.60;;;11.30;99.90;;;;;;10449358;28;20214;-77
2024/02/16 08:34:00;;;;;;;0.50;0.50;;;11.40;99.90;;;;;;10449359;28;20204;-76
2024/02/16 08:39:02;;;;;;;0.50;0.50;;;11.50;99.90;;;;;;10449282;28;20217;-75
2024/02/16 08:44:09;;;;;;;0.70;0.70;;;11.70;99.90;;;;;;10449430;28;20206;-76
2024/02/16 08:49:11;;;;;;;0.47;0.47;;;11.90;99.90;;;;;;10431318;28;20217;-76
2024/02/16 08:54:14;;;;;;;0.40;0.40;;;12.00;99.90;;;;;;10455272;28;20250;-76
2024/02/16 08:59:18;;;;;;;0.50;0.50;;;12.10;99.90;;;;;;10457186;28;20220;-77
2024/02/16 09:04:20;;;;;;;0.60;0.60;;;12.20;99.90;;;;;;10438941;28;20193;-75
2024/02/16 09:09:23;;;;;;;0.80;0.80;;;12.30;99.90;;;;;;10456980;28;20216;-77
2024/02/16 09:14:27;;;;;;;0.60;0.60;;;12.40;99.90;;;;;;10439033;28;20201;-76
2024/02/16 09:19:30;;;;;;;0.70;0.70;;;12.50;99.90;;;;;;10456164;28;20225;-76
2024/02/16 09:24:32;;;;;;;0.60;0.60;;;12.60;99.90;;;;;;10421506;28;20243;-77
2024/02/16 09:29:36;;;;;;;0.80;0.80;;;12.70;99.90;;;;;;10456171;28;20687;-77
2024/02/16 09:34:39;;;;;;;0.60;0.60;;;12.80;99.90;;;;;;10455879;28;20201;-74
2024/02/16 09:39:42;;;;;;;0.80;0.80;;;12.80;99.90;;;;;;10437032;28;20240;-77
2024/02/16 09:44:47;;;;;;;0.60;0.60;;;12.90;99.90;;;;;;10437766;28;20201;-77
2024/02/16 09:49:49;;;;;;;0.60;0.60;;;13.00;99.90;;;;;;10437317;28;20213;-76
2024/02/16 09:54:52;;;;;;;0.80;0.80;;;13.20;99.90;;;;;;10455940;28;20198;-78
2024/02/16 09:59:56;;;;;;;0.70;0.70;;;13.50;99.90;;;;;;10455072;28;20236;-76
2024/02/16 10:04:58;;;;;;;0.60;0.60;;;13.80;99.90;;;;;;10436080;28;20232;-76
2024/02/16 10:10:01;;;;;;;0.70;0.70;;;14.00;99.90;;;;;;10454819;28;20205;-77
2024/02/16 10:15:06;;;;;;;0.67;0.67;;;14.10;99.90;;;;;;10419464;28;20201;-76
2024/02/16 10:20:11;;;;;;;0.60;0.60;;;14.30;99.90;;;;;;10436202;28;20233;-77
2024/02/16 10:25:14;;;;;;;0.90;0.90;;;14.30;99.90;;;;;;10436386;28;20205;-76
2024/02/16 10:30:18;;;;;;;0.50;0.50;;;14.40;99.90;;;;;;10419302;28;20213;-76
2024/02/16 10:35:24;;;;;;;0.63;0.63;;;14.40;99.90;;;;;;10435914;28;20197;-77
2024/02/16 10:40:28;;;;;;;0.60;0.60;;;14.50;99.90;;;;;;10435534;28;20217;-77
2024/02/16 10:45:36;;;;;;;0.60;0.60;;;14.60;99.90;;;;;;10435050;28;20197;-77
2024/02/16 10:50:39;;;;;;;0.50;0.50;;;14.70;99.90;;;;;;10453073;28;20730;-76
2024/02/16 10:55:42;;;;;;;0.60;0.60;;;14.80;99.90;;;;;;10452823;28;20205;-77
2024/02/16 11:00:57;;;;;;;0.60;0.60;;;14.90;99.90;;;;;;10434640;28;20217;-76
2024/02/16 11:06:00;;;;;;;0.60;0.60;;;14.90;99.90;;;;;;10434549;28;20201;-76
2024/02/16 11:11:03;;;;;;;0.60;0.60;;;15.00;99.90;;;;;;10434374;28;20225;-77
2024/02/16 11:16:09;;;;;;;0.50;0.50;;;15.20;99.90;;;;;;10450803;28;20205;-77
2024/02/16 11:21:13;;;;;;;0.50;0.50;;;15.30;99.90;;;;;;10459645;22;20283;-81
2024/02/16 11:26:18;;;;;;;0.47;0.47;;;15.30;99.90;;;;;;10454805;28;20263;-82
2024/02/16 11:31:22;;;;;;;0.47;0.47;;;15.40;99.90;;;;;;10436591;28;20217;-82
2024/02/16 11:36:25;;;;;;;0.50;0.50;;;15.50;99.90;;;;;;10443097;28;20185;-80
2024/02/16 11:41:27;;;;;;;0.50;0.50;;;15.50;99.90;;;;;;10435831;28;20222;-81
2024/02/16 11:46:31;;;;;;;0.50;0.50;;;15.40;99.90;;;;;;10429982;28;20204;-80
2024/02/16 11:51:34;;;;;;;0.60;0.60;;;15.40;99.90;;;;;;10435841;28;20232;-81
2024/02/16 11:56:39;;;;;;;0.53;0.53;;;15.30;99.90;;;;;;10432840;28;20571;-81
2024/02/16 12:01:54;;;;;;;0.40;0.40;;;15.30;99.90;;;;;;10437104;28;20234;-79
2024/02/16 12:06:57;;;;;;;0.50;0.50;;;15.40;99.90;;;;;;10432101;28;20255;-80
2024/02/16 12:12:00;;;;;;;0.50;0.50;;;15.50;99.90;;;;;;10434767;28;20214;-81
2024/02/16 12:17:04;;;;;;;0.50;0.50;;;15.70;99.90;;;;;;10429848;28;20205;-80
2024/02/16 12:22:07;;;;;;;0.40;0.40;;;15.80;99.90;;;;;;10435709;28;20218;-80
2024/02/16 12:27:09;;;;;;;0.50;0.50;;;15.80;99.90;;;;;;10429157;28;20205;-80
2024/02/16 12:32:18;;;;;;;0.50;0.50;;;15.90;99.90;;;;;;10434557;28;20556;-81
2024/02/16 12:37:22;;;;;;;0.50;0.50;;;16.00;99.90;;;;;;10431048;28;20201;-82
2024/02/16 12:42:24;;;;;;;0.50;0.50;;;16.10;99.90;;;;;;10435897;28;20221;-81
2024/02/16 12:47:28;;;;;;;0.60;0.60;;;16.10;99.90;;;;;;10432429;28;20572;-78
2024/02/16 12:52:33;;;;;;;0.50;0.50;;;16.20;99.90;;;;;;10438005;28;20263;-81
2024/02/16 12:57:36;;;;;;;0.60;0.60;;;16.20;99.80;;;;;;10432295;28;20316;-82
2024/02/16 13:02:40;;;;;;;0.50;0.50;;;16.20;99.90;;;;;;10435925;28;20507;-82
2024/02/16 13:07:42;;;;;;;0.60;0.60;;;16.20;99.90;;;;;;10430159;28;20201;-82
2024/02/16 13:12:45;;;;;;;0.30;0.30;;;16.20;99.90;;;;;;10436696;28;20210;-83
2024/02/16 13:17:49;;;;;;;0.60;0.60;;;16.30;99.30;;;;;;10429616;28;20208;-82
2024/02/16 13:22:51;;;;;;;0.60;0.60;;;16.40;98.90;;;;;;10437074;28;20635;-82
2024/02/16 13:27:54;;;;;;;0.43;0.43;;;16.40;99.00;;;;;;10429939;28;20248;-85
2024/02/16 13:32:58;;;;;;;0.60;0.60;;;16.40;99.50;;;;;;10440078;28;20210;-84
2024/02/16 13:38:00;;;;;;;0.40;0.40;;;16.50;99.10;;;;;;10421526;28;20197;-82
2024/02/16 13:43:04;;;;;;;0.60;0.60;;;16.40;99.50;;;;;;10446319;28;20226;-81
2024/02/16 13:48:11;;;;;;;0.50;0.50;;;16.30;99.60;;;;;;10434229;28;20579;-82
2024/02/16 13:53:14;;;;;;;0.20;0.20;;;16.40;99.20;;;;;;10445222;28;20213;-81
2024/02/16 13:58:17;;;;;;;0.40;0.40;;;16.50;98.90;;;;;;10434983;28;20201;-84
2024/02/16 14:03:21;;;;;;;0.50;0.50;;;16.60;99.00;;;;;;10446637;28;20718;-83
2024/02/16 14:08:23;;;;;;;0.40;0.40;;;16.60;99.10;;;;;;10434866;28;20197;-82
2024/02/16 14:13:26;;;;;;;0.30;0.30;;;16.60;99.10;;;;;;10456402;28;20197;-80
2024/02/16 14:18:30;;;;;;;0.40;0.40;;;16.50;99.30;;;;;;10437441;28;20205;-81
2024/02/16 14:23:32;;;;;;;0.50;0.50;;;16.40;99.60;;;;;;10446486;28;20198;-81
2024/02/16 14:28:35;;;;;;;0.47;0.47;;;16.30;99.90;;;;;;10432153;28;20209;-82
2024/02/16 14:33:39;;;;;;;0.60;0.60;;;16.20;99.90;;;;;;10447693;28;20202;-81
2024/02/16 14:38:41;;;;;;;0.50;0.50;;;16.00;99.90;;;;;;10431429;28;20205;-81
2024/02/16 14:43:44;;;;;;;0.60;0.60;;;15.90;99.90;;;;;;10458838;28;20213;-82
2024/02/16 14:48:48;;;;;;;0.60;0.60;;;15.80;99.90;;;;;;10428549;28;20224;-81
2024/02/16 14:53:50;;;;;;;0.80;0.80;;;15.80;99.90;;;;;;10429339;28;20205;-82
2024/02/16 14:58:53;;;;;;;0.70;0.70;;;15.70;99.90;;;;;;10446519;28;20233;-83
2024/02/16 15:03:57;;;;;;;0.70;0.70;;;15.60;99.90;;;;;;10428753;28;20193;-82
2024/02/16 15:08:59;;;;;;;0.70;0.70;;;15.50;99.90;;;;;;10444545;28;20222;-81
2024/02/16 15:14:02;;;;;;;0.60;0.60;;;15.40;99.90;;;;;;10428371;28;20667;-82
2024/02/16 15:19:06;;;;;;;0.70;0.70;;;15.30;99.90;;;;;;10447785;28;20581;-81
2024/02/16 15:24:08;;;;;;;0.60;0.60;;;15.30;99.90;;;;;;10417727;28;20194;-81
2024/02/16 15:29:10;;;;;;;0.50;0.50;;;15.30;99.90;;;;;;10421337;28;20217;-82
2024/02/16 15:34:14;;;;;;;0.50;0.50;;;15.40;99.90;;;;;;10403916;28;20278;-79
2024/02/16 15:39:17;;;;;;;0.40;0.40;;;15.40;99.90;;;;;;10438318;28;20213;-81
2024/02/16 15:44:19;;;;;;;0.70;0.70;;;15.40;99.90;;;;;;10391062;28;20216;-82
2024/02/16 15:49:23;;;;;;;0.60;0.60;;;15.30;99.90;;;;;;10445193;28;20271;-81
2024/02/16 15:54:26;;;;;;;0.80;0.80;;;15.20;99.90;;;;;;10422153;28;20208;-82
2024/02/16 15:59:28;;;;;;;0.80;0.80;;;15.20;99.90;;;;;;10443024;28;21022;-83
2024/02/16 16:04:32;;;;;;;0.70;0.70;;;15.20;99.90;;;;;;10419534;28;20596;-82
2024/02/16 16:09:35;;;;;;;0.50;0.50;;;15.10;99.90;;;;;;10447493;28;20644;-82
2024/02/16 16:14:37;;;;;;;0.60;0.60;;;15.10;99.90;;;;;;10392274;28;20285;-82
2024/02/16 16:19:41;;;;;;;0.60;0.60;;;15.10;99.90;;;;;;10392848;28;20255;-80
2024/02/16 16:24:43;;;;;;;0.60;0.60;;;15.00;99.90;;;;;;10439142;28;20716;-81
2024/02/16 16:29:47;;;;;;;0.70;0.70;;;15.00;99.90;;;;;;10419265;28;20622;-83
2024/02/16 16:34:51;;;;;;;0.70;0.70;;;15.00;99.90;;;;;;10453653;28;20190;-82
2024/02/16 16:39:54;;;;;;;0.37;0.37;;;15.00;99.90;;;;;;10391315;28;20263;-82
2024/02/16 16:44:56;;;;;;;0.70;0.70;;;15.00;99.90;;;;;;10439421;28;20627;-81
2024/02/16 16:50:00;;;;;;;0.60;0.60;;;14.90;99.90;;;;;;10425704;28;20266;-81
2024/02/16 16:55:03;;;;;;;0.57;0.57;;;14.90;99.90;;;;;;10447773;28;20197;-81
2024/02/16 17:00:06;;;;;;;0.60;0.60;;;14.90;99.90;;;;;;10425370;28;20246;-81
2024/02/16 17:05:11;;;;;;;0.80;0.80;;;14.90;99.90;;;;;;10426472;28;20220;-80
2024/02/16 17:10:15;;;;;;;0.70;0.70;;;14.90;99.90;;;;;;10464823;28;20210;-80
2024/02/16 17:15:19;;;;;;;0.70;0.70;;;14.80;99.90;;;;;;10431666;28;20231;-82
2024/02/16 17:20:24;;;;;;;0.70;0.70;;;14.80;99.90;;;;;;10448794;28;20243;-82
2024/02/16 17:25:26;;;;;;;0.50;0.50;;;14.80;99.90;;;;;;10424128;28;20198;-82
2024/02/16 17:30:31;;;;;;;0.70;0.70;;;14.70;99.90;;;;;;10405922;28;20209;-80
2024/02/16 17:35:35;;;;;;;0.60;0.60;;;14.70;99.90;;;;;;10402562;28;20189;-83
2024/02/16 17:40:38;;;;;;;0.60;0.60;;;14.70;99.90;;;;;;10473275;28;20213;-82
2024/02/16 17:45:40;;;;;;;0.90;0.90;;;14.70;99.90;;;;;;10419878;28;20181;-83
2024/02/16 17:50:44;;;;;;;0.70;0.70;;;14.60;99.90;;;;;;10440036;28;20205;-82
2024/02/16 17:55:46;;;;;;;0.80;0.80;;;14.60;99.90;;;;;;10407388;28;20598;-81
2024/02/16 18:00:49;;;;;;;1.00;1.00;;;14.50;99.90;;;;;;10414442;28;20271;-81
2024/02/16 18:05:53;;;;;;;1.00;1.00;;;14.40;99.90;;;;;;10396337;28;20277;-82
2024/02/16 18:10:56;;;;;;;1.00;1.00;;;14.40;99.90;;;;;;10432757;28;20284;-82
2024/02/16 18:15:59;;;;;;;0.90;0.90;;;14.30;99.90;;;;;;10434152;28;20267;-82
2024/02/16 18:21:03;;;;;;;0.80;0.80;;;14.30;99.90;;;;;;10414547;28;20572;-83
2024/02/16 18:26:05;;;;;;;1.07;1.07;;;14.30;99.90;;;;;;10426114;28;20197;-82
2024/02/16 18:31:08;;;;;;;1.00;1.00;;;14.30;99.90;;;;;;10435703;28;20210;-84
2024/02/16 18:36:11;;;;;;;0.57;0.57;;;14.40;99.90;;;;;;10399390;28;20194;-83
2024/02/16 18:41:14;;;;;;;1.00;1.00;;;14.30;99.90;;;;;;10462264;28;20209;-80
2024/02/16 18:46:17;;;;;;;0.90;0.90;;;14.30;99.90;;;;;;10403016;28;20193;-83
2024/02/16 18:51:21;;;;;;;0.70;0.70;;;14.40;99.90;;;;;;10460594;28;20715;-80
2024/02/16 18:56:23;;;;;;;1.00;1.00;;;14.40;99.90;;;;;;10422993;28;20271;-83
2024/02/16 19:01:25;;;;;;;0.80;0.80;;;14.30;99.90;;;;;;10457869;28;20228;-82
2024/02/16 19:06:29;;;;;;;0.93;0.93;;;14.30;99.90;;;;;;10387693;28;20198;-82
2024/02/16 19:11:32;;;;;;;0.80;0.80;;;14.30;99.90;;;;;;10403226;28;20271;-81
2024/02/16 19:16:34;;;;;;;0.70;0.70;;;14.30;99.90;;;;;;10406372;28;20733;-82
2024/02/16 19:21:38;;;;;;;0.90;0.90;;;14.30;99.90;;;;;;10410404;28;20221;-83
2024/02/16 19:26:41;;;;;;;1.00;1.00;;;14.30;99.90;;;;;;10419483;28;20206;-81
2024/02/16 19:31:44;;;;;;;0.80;0.80;;;14.30;99.90;;;;;;10424254;28;20214;-83
2024/02/16 19:36:47;;;;;;;0.70;0.70;;;14.20;99.90;;;;;;10458272;28;20200;-81
2024/02/16 19:41:50;;;;;;;0.43;0.43;;;14.20;99.90;;;;;;10433641;28;20213;-80
2024/02/16 19:46:53;;;;;;;1.00;1.00;;;14.20;99.90;;;;;;10412914;28;20214;-82
2024/02/16 19:51:56;;;;;;;0.50;0.50;;;14.20;99.90;;;;;;10413317;28;20268;-82
2024/02/16 19:56:59;;;;;;;1.00;1.00;;;14.10;99.90;;;;;;10407795;28;20209;-82
2024/02/16 20:02:01;;;;;;;0.93;0.93;;;14.10;99.90;;;;;;10399094;28;20229;-82
2024/02/16 20:07:06;;;;;;;0.90;0.90;;;14.00;99.90;;;;;;10404945;28;20195;-82
2024/02/16 20:12:09;;;;;;;1.10;1.10;;;14.00;99.90;;;;;;10458103;28;20693;-80
2024/02/16 20:17:13;;;;;;;1.10;1.10;;;13.90;99.90;;;;;;10424572;28;20194;-84
2024/02/16 20:22:17;;;;;;;1.00;1.00;;;13.90;99.90;;;;;;10421462;28;20639;-81
2024/02/16 20:27:19;;;;;;;1.10;1.10;;;13.80;99.90;;;;;;10421340;28;20503;-82
2024/02/16 20:32:23;;;;;;;1.00;1.00;;;13.80;99.90;;;;;;10402846;28;20757;-82
2024/02/16 20:37:26;;;;;;;1.10;1.10;;;13.80;99.90;;;;;;10418059;28;20202;-80
2024/02/16 20:42:29;;;;;;;0.90;0.90;;;13.80;99.90;;;;;;10451227;28;20221;-79
2024/02/16 20:47:32;;;;;;;1.60;1.60;;;13.80;99.90;;;;;;10419151;28;20190;-79
2024/02/16 20:52:36;;;;;;;1.63;1.63;;;13.70;99.90;;;;;;10454427;28;20733;-79
2024/02/16 20:57:38;;;;;;;1.60;1.60;;;13.60;99.90;;;;;;10428850;28;20190;-80
2024/02/16 21:02:41;;;;;;;1.80;1.80;;;13.60;99.90;;;;;;10459997;28;20213;-80
2024/02/16 21:07:44;;;;;;;1.97;1.97;;;13.50;99.90;;;;;;10448974;28;20193;-79
2024/02/16 21:12:47;;;;;;;2.60;2.60;;;13.50;99.90;;;;;;10428475;28;20202;-81
2024/02/16 21:17:50;;;;;;;3.30;3.30;;;13.40;99.90;;;;;;10457892;28;20193;-80
2024/02/16 21:22:54;;;;;;;3.33;3.33;;;13.40;99.90;;;;;;10410044;28;20214;-82
2024/02/16 21:27:57;;;;;;;4.00;4.00;;;13.40;99.90;;;;;;10424548;28;20224;-83
2024/02/16 21:33:03;;;;;;;3.77;3.77;;;13.40;99.90;;;;;;10426830;28;20214;-81
2024/02/16 21:38:07;;;;;;;3.97;3.97;;;13.40;99.90;;;;;;10448431;28;20274;-80
2024/02/16 21:43:09;;;;;;;4.67;4.67;;;13.30;99.90;;;;;;10428821;28;20233;-80
2024/02/16 21:48:12;;;;;;;4.70;4.70;;;13.30;99.90;;;;;;10455968;28;20205;-80
2024/02/16 21:53:16;;;;;;;5.13;5.13;;;13.30;99.90;;;;;;10434649;28;20225;-80
2024/02/16 21:58:18;;;;;;;4.77;4.77;;;13.30;99.90;;;;;;10455562;28;20205;-81
2024/02/16 22:03:21;;;;;;;4.83;4.83;;;13.30;99.90;;;;;;10423733;28;20230;-81
2024/02/16 22:08:25;;;;;;;5.33;5.33;;;13.30;99.90;;;;;;10448889;28;20258;-79
2024/02/16 22:13:28;;;;;;;6.00;6.00;;;13.20;99.90;;;;;;10410766;28;20256;-81
2024/02/16 22:18:32;;;;;;;4.80;4.80;;;13.20;99.90;;;;;;10446904;28;20204;-82
2024/02/16 22:23:36;;;;;;;5.47;5.47;;;13.20;99.90;;;;;;10424340;28;20240;-80
2024/02/16 22:28:39;;;;;;;5.47;5.47;;;13.20;99.90;;;;;;10447762;28;20205;-80
2024/02/16 22:33:41;;;;;;;5.50;5.50;;;13.20;99.90;;;;;;10425154;28;20244;-80
2024/02/16 22:38:45;;;;;;;5.57;5.57;;;13.20;99.90;;;;;;10446663;28;20263;-80
2024/02/16 22:43:47;;;;;;;5.93;5.93;;;13.20;99.90;;;;;;10373151;28;20234;-81
2024/02/16 22:48:50;;;;;;;6.10;6.10;;;13.20;99.90;;;;;;10435509;28;20232;-80
2024/02/16 22:53:54;;;;;;;6.17;6.17;;;13.20;99.90;;;;;;10426109;28;20198;-79
2024/02/16 22:58:56;;;;;;;6.00;6.00;;;13.10;99.90;;;;;;10444759;28;20220;-81
2024/02/16 23:03:59;;;;;;;5.67;5.67;;;13.20;99.90;;;;;;10421644;28;20710;-81
2024/02/16 23:09:07;;;;;;;6.10;6.10;;;13.20;99.90;;;;;;10444399;28;20217;-81
2024/02/16 23:14:10;;;;;;;6.07;6.07;;;13.10;99.90;;;;;;10425994;28;20205;-80
2024/02/16 23:19:13;;;;;;;6.03;6.03;;;13.20;99.90;;;;;;10445729;28;20279;-81
2024/02/16 23:24:17;;;;;;;5.80;5.80;;;13.10;99.90;;;;;;10428337;28;20222;-80
2024/02/16 23:29:19;;;;;;;5.10;5.10;;;13.10;99.90;;;;;;10444971;28;20612;-81
2024/02/16 23:34:22;;;;;;;6.27;6.27;;;13.10;99.90;;;;;;10428383;28;20205;-82
2024/02/16 23:39:25;;;;;;;6.10;6.10;;;13.00;99.90;;;;;;10444240;28;20290;-79
2024/02/16 23:44:28;;;;;;;5.30;5.30;;;13.00;99.90;;;;;;10428804;28;20230;-81
2024/02/16 23:49:30;;;;;;;5.20;5.20;;;13.00;99.90;;;;;;10445974;28;20209;-81
2024/02/16 23:54:34;;;;;;;6.10;6.10;;;13.00;99.90;;;;;;10429074;28;20259;-80
2024/02/16 23:59:37;;;;;;;6.20;6.20;;;13.00;99.90;;;;;;10438369;28;20221;-78
